Time;durP1;ratioP1;P1;durP2;ratioP2;P2;SDS_P1;SDS_P2;PMS_P1;PMS_P2;Temp;Humidity;BMP_temperature;BMP_pressure;BME280_temperature;BME280_humidity;BME280_pressure;Samples;Min_cycle;Max_cycle;Signal;HPM_P1;HPM_P2
2022/03/21 00:01:11;;;;;;;;;59.50;44.50;;;;;13.38;82.43;102338.91;6270419;22;45327;-95
2022/03/21 00:03:39;;;;;;;;;56.00;45.75;;;;;13.37;82.05;102360.84;6270350;22;45647;-93
2022/03/21 00:06:07;;;;;;;;;56.75;45.00;;;;;13.25;82.47;102338.19;6270114;22;47287;-95
2022/03/21 00:08:32;;;;;;;;;54.00;43.00;;;;;13.21;82.92;102333.56;6269782;22;45161;-94
2022/03/21 00:11:01;;;;;;;;;61.00;47.75;;;;;13.29;82.59;102355.13;6270327;22;45310;-94
2022/03/21 00:13:27;;;;;;;;;57.00;43.75;;;;;13.28;82.84;102355.94;6296683;22;45285;-95
2022/03/21 00:15:54;;;;;;;;;55.00;46.00;;;;;13.26;82.90;102355.84;6269931;22;47074;-94
2022/03/21 00:18:23;;;;;;;;;59.00;47.75;;;;;13.25;83.00;102353.09;6271038;22;45255;-94
2022/03/21 00:20:53;;;;;;;;;54.25;40.25;;;;;13.17;82.84;102353.56;6270335;22;45585;-94
2022/03/21 00:23:20;;;;;;;;;58.25;42.00;;;;;13.16;82.83;102359.66;6270173;22;45281;-94
2022/03/21 00:25:45;;;;;;;;;54.75;42.50;;;;;13.14;82.95;102360.38;6269891;22;47396;-94
2022/03/21 00:28:11;;;;;;;;;56.75;44.50;;;;;13.11;83.57;102353.19;6270155;22;45946;-95
2022/03/21 00:30:39;;;;;;;;;53.75;43.75;;;;;13.12;83.59;102349.72;6270152;22;45262;-94
2022/03/21 00:33:05;;;;;;;;;58.25;43.75;;;;;13.03;83.41;102360.63;6269780;22;45491;-95
2022/03/21 00:35:31;;;;;;;;;55.00;42.25;;;;;13.00;83.44;102341.06;6269684;22;47019;-95
2022/03/21 00:37:57;;;;;;;;;54.00;42.00;;;;;13.02;84.01;102349.97;6269042;22;45442;-94
2022/03/21 00:40:25;;;;;;;;;57.00;40.50;;;;;12.90;83.68;102342.25;6296213;22;45378;-95
2022/03/21 00:42:54;;;;;;;;;61.25;48.00;;;;;12.93;83.95;102350.34;6269743;22;45270;-94
2022/03/21 00:45:24;;;;;;;;;57.25;45.25;;;;;13.01;84.71;102364.00;6269850;22;48214;-94
2022/03/21 00:47:50;;;;;;;;;60.25;44.25;;;;;12.92;84.65;102356.41;6269676;22;45299;-94
2022/03/21 00:50:18;;;;;;;;;57.25;43.75;;;;;12.87;84.92;102342.03;6269090;22;45339;-94
2022/03/21 00:52:45;;;;;;;;;56.25;45.50;;;;;12.90;84.81;102358.06;6270228;22;45251;-94
2022/03/21 00:55:12;;;;;;;;;58.00;45.50;;;;;12.84;84.80;102340.13;6270079;22;47489;-95
2022/03/21 00:57:40;;;;;;;;;58.25;42.75;;;;;12.74;85.42;102334.31;6270425;22;45278;-94
2022/03/21 01:00:08;;;;;;;;;60.00;47.25;;;;;12.75;85.35;102332.59;6270792;22;45186;-95
2022/03/21 01:02:36;;;;;;;;;60.00;45.50;;;;;12.81;85.80;102354.03;6271026;22;45539;-94
2022/03/21 01:05:06;;;;;;;;;54.50;40.75;;;;;12.71;86.20;102341.09;6271104;22;47158;-94
2022/03/21 01:07:31;;;;;;;;;62.00;46.00;;;;;12.69;85.91;102340.09;6270497;22;45296;-94
2022/03/21 01:09:57;;;;;;;;;46.25;38.75;;;;;12.69;86.37;102345.34;6271033;22;45390;-93
2022/03/21 01:12:23;;;;;;;;;64.25;46.50;;;;;12.68;86.25;102348.81;6270979;22;45184;-95
2022/03/21 01:14:48;;;;;;;;;59.75;46.25;;;;;12.62;86.92;102338.81;6271089;22;47917;-94
2022/03/21 01:17:14;;;;;;;;;61.50;45.75;;;;;12.69;87.19;102356.81;6270943;22;45178;-94
2022/03/21 01:19:39;;;;;;;;;55.75;43.25;;;;;12.65;87.00;102346.00;6271060;22;44848;-94
2022/03/21 01:22:06;;;;;;;;;45.75;40.00;;;;;12.66;87.54;102347.78;6274870;22;45367;-95
2022/03/21 01:24:32;;;;;;;;;62.00;48.00;;;;;12.62;87.40;102339.72;6278781;22;47175;-95
2022/03/21 01:26:57;;;;;;;;;56.25;43.00;;;;;12.57;87.72;102343.78;6299064;22;45380;-94
2022/03/21 01:29:23;;;;;;;;;63.00;47.00;;;;;12.51;88.21;102333.78;6301266;22;44767;-94
2022/03/21 01:31:48;;;;;;;;;58.50;44.00;;;;;12.57;87.94;102345.50;6299701;22;44930;-94
2022/03/21 01:34:14;;;;;;;;;55.00;43.50;;;;;12.54;88.41;102343.59;6287640;22;46646;-94
2022/03/21 01:36:42;;;;;;;;;59.25;46.50;;;;;12.49;88.37;102337.13;6272352;22;45261;-95
2022/03/21 01:39:07;;;;;;;;;57.75;42.75;;;;;12.51;88.71;102344.31;6277166;22;45222;-92
2022/03/21 01:41:33;;;;;;;;;56.25;39.75;;;;;12.39;88.77;102323.38;6314743;22;45565;-93
2022/03/21 01:44:07;;;;;;;;;55.75;43.75;;;;;12.48;89.05;102323.03;6284666;22;47248;-91
2022/03/21 01:46:33;;;;;;;;;53.00;41.50;;;;;12.44;89.40;102335.91;6288502;22;45362;-93
2022/03/21 01:48:59;;;;;;;;;54.75;44.00;;;;;12.50;89.51;102349.47;6288706;22;45365;-92
2022/03/21 01:51:26;;;;;;;;;51.25;45.00;;;;;12.41;88.97;102326.09;6287407;22;45234;-92
2022/03/21 01:56:39;;;;;;;;;55.25;43.00;;;;;12.50;89.52;102344.19;6283120;22;45390;-94
2022/03/21 01:59:05;;;;;;;;;59.25;44.75;;;;;12.56;90.09;102362.13;6271709;22;45301;-95
2022/03/21 02:01:31;;;;;;;;;59.25;46.25;;;;;12.49;90.41;102342.38;6271736;22;45291;-94
2022/03/21 02:03:56;;;;;;;;;62.00;46.25;;;;;12.50;89.54;102333.66;6273875;22;45364;-94
2022/03/21 02:06:25;;;;;;;;;54.75;45.00;;;;;12.50;90.46;102328.38;6271047;22;45860;-94
2022/03/21 02:08:51;;;;;;;;;54.75;44.50;;;;;12.66;90.30;102351.34;6271275;22;45331;-93
2022/03/21 02:11:19;;;;;;;;;52.50;42.75;;;;;12.65;90.23;102352.19;6271316;22;45384;-94
2022/03/21 02:13:45;;;;;;;;;55.75;44.50;;;;;12.58;89.99;102332.41;6269081;22;48198;-94
2022/03/21 02:16:10;;;;;;;;;57.00;43.75;;;;;12.63;90.24;102354.69;6270946;22;45390;-95
2022/03/21 02:18:39;;;;;;;;;50.25;42.50;;;;;12.59;90.12;102335.97;6270781;22;45393;-94
2022/03/21 02:21:09;;;;;;;;;56.50;43.00;;;;;12.59;90.18;102338.59;6270404;22;45333;-94
2022/03/21 02:23:53;;;;;;;;;52.00;41.00;;;;;12.70;90.31;102352.47;6270142;22;46870;-94
2022/03/21 02:26:20;;;;;;;;;55.25;45.75;;;;;12.48;90.80;102337.91;6270719;22;45827;-94
2022/03/21 02:28:48;;;;;;;;;59.75;44.25;;;;;12.47;90.84;102338.75;6271038;22;45317;-94
2022/03/21 02:31:15;;;;;;;;;57.50;44.25;;;;;12.35;91.10;102321.34;6270098;22;45371;-93
2022/03/21 02:33:41;;;;;;;;;48.50;39.25;;;;;12.40;91.13;102340.06;6269862;22;47890;-94
2022/03/21 02:36:08;;;;;;;;;51.25;41.50;;;;;12.43;91.17;102348.16;6270392;22;45368;-94
2022/03/21 02:38:35;;;;;;;;;45.50;41.50;;;;;12.32;91.67;102330.78;6270923;22;45420;-94
2022/03/21 02:41:01;;;;;;;;;51.25;42.75;;;;;12.24;91.86;102319.78;6272538;22;45249;-94
2022/03/21 02:43:26;;;;;;;;;53.50;43.00;;;;;12.27;92.02;102333.09;6270410;22;47245;-93
2022/03/21 02:45:52;;;;;;;;;49.75;39.25;;;;;12.23;92.15;102324.13;6270487;22;45427;-94
2022/03/21 02:48:19;;;;;;;;;56.50;42.75;;;;;12.21;91.92;102316.94;6270646;22;45232;-94
2022/03/21 02:51:00;;;;;;;;;58.75;44.00;;;;;12.28;92.31;102320.06;6296662;22;45461;-94
2022/03/21 02:53:29;;;;;;;;;56.00;44.25;;;;;12.23;92.42;102329.38;6269827;22;47928;-94
2022/03/21 02:55:56;;;;;;;;;54.00;41.25;;;;;12.13;92.36;102320.00;6270496;22;45423;-93
2022/03/21 02:58:21;;;;;;;;;55.00;41.50;;;;;12.15;92.30;102334.16;6270381;22;45378;-94
2022/03/21 03:00:47;;;;;;;;;60.75;46.00;;;;;12.17;92.87;102331.59;6270495;22;45588;-94
2022/03/21 03:03:13;;;;;;;;;54.25;43.00;;;;;12.17;93.35;102339.50;6270143;22;47040;-94
2022/03/21 03:05:38;;;;;;;;;48.75;41.50;;;;;12.04;92.87;102306.19;6272051;22;45368;-94
2022/03/21 03:08:04;;;;;;;;;44.00;39.00;;;;;12.07;93.58;102323.09;6270437;22;45318;-94
2022/03/21 03:10:30;;;;;;;;;50.75;41.50;;;;;12.12;93.38;102325.09;6270648;22;45558;-94
2022/03/21 03:12:55;;;;;;;;;50.00;41.75;;;;;12.10;93.97;102325.03;6269963;22;48384;-94
2022/03/21 03:15:21;;;;;;;;;45.50;40.25;;;;;12.03;93.54;102334.25;6269972;22;45231;-94
2022/03/21 03:17:46;;;;;;;;;55.50;44.00;;;;;12.03;93.77;102330.69;6270247;22;45226;-94
2022/03/21 03:20:12;;;;;;;;;52.50;41.00;;;;;12.03;94.06;102321.09;6270505;22;45332;-94
2022/03/21 03:22:39;;;;;;;;;54.50;40.00;;;;;12.02;94.23;102324.53;6271197;22;46861;-94
2022/03/21 03:25:06;;;;;;;;;51.00;40.00;;;;;11.95;94.34;102324.94;6269845;22;45522;-94
2022/03/21 03:27:31;;;;;;;;;53.75;43.75;;;;;11.95;94.03;102328.47;6270192;22;45469;-94
2022/03/21 03:29:58;;;;;;;;;54.75;41.25;;;;;11.95;95.12;102325.84;6270277;22;45472;-94
2022/03/21 03:32:24;;;;;;;;;57.75;44.00;;;;;11.92;95.08;102322.09;6270274;22;46781;-94
2022/03/21 03:34:50;;;;;;;;;50.75;41.00;;;;;11.99;95.01;102336.56;6270327;22;45747;-94
2022/03/21 03:37:16;;;;;;;;;52.75;41.00;;;;;11.92;95.10;102319.47;6271688;22;45242;-94
2022/03/21 03:39:42;;;;;;;;;52.00;40.50;;;;;12.01;95.75;102341.09;6270325;22;45424;-93
2022/03/21 03:42:07;;;;;;;;;55.00;41.00;;;;;12.01;95.47;102341.09;6270120;22;46988;-93
2022/03/21 03:44:33;;;;;;;;;54.75;43.25;;;;;11.92;95.56;102327.38;6269113;22;45334;-94
2022/03/21 03:46:58;;;;;;;;;51.25;39.75;;;;;11.88;95.68;102320.09;6270301;22;45184;-95
2022/03/21 03:49:23;;;;;;;;;51.75;39.00;;;;;12.00;95.75;102335.75;6271073;22;45385;-94
2022/03/21 03:51:49;;;;;;;;;54.00;42.00;;;;;12.05;96.02;102339.59;6269526;22;46970;-95
2022/03/21 03:54:15;;;;;;;;;56.00;43.00;;;;;12.07;95.85;102352.06;6270307;22;45456;-94
2022/03/21 03:56:40;;;;;;;;;51.75;43.00;;;;;12.13;96.09;102359.47;6270930;22;45453;-94
2022/03/21 03:59:06;;;;;;;;;53.25;42.00;;;;;11.98;96.18;102330.41;6269664;22;45416;-94
2022/03/21 04:01:34;;;;;;;;;55.50;44.25;;;;;12.20;96.31;102341.44;6270603;22;47578;-94
2022/03/21 04:04:00;;;;;;;;;56.50;41.75;;;;;12.19;96.15;102356.31;6270331;22;45545;-91
2022/03/21 04:06:27;;;;;;;;;47.50;38.75;;;;;12.11;96.61;102326.81;6269354;22;45561;-92
2022/03/21 04:08:52;;;;;;;;;50.25;42.00;;;;;12.19;96.98;102348.41;6270031;22;45568;-92
2022/03/21 04:11:18;;;;;;;;;44.75;38.75;;;;;12.18;96.47;102336.06;6269836;22;47997;-93
2022/03/21 04:13:45;;;;;;;;;50.25;42.00;;;;;12.27;96.39;102351.53;6268700;22;45484;-92
2022/03/21 04:16:11;;;;;;;;;53.75;42.75;;;;;12.18;96.82;102334.38;6268580;22;45301;-92
2022/03/21 04:18:36;;;;;;;;;57.75;42.50;;;;;12.32;97.06;102360.66;6270061;22;45435;-93
2022/03/21 04:21:04;;;;;;;;;53.75;38.75;;;;;12.30;97.58;102359.63;6269424;22;47033;-93
2022/03/21 04:23:30;;;;;;;;;56.25;43.25;;;;;12.35;97.10;102368.75;6269874;22;45584;-94
2022/03/21 04:25:57;;;;;;;;;54.00;40.00;;;;;12.35;97.75;102367.81;6268629;22;45338;-93
2022/03/21 04:28:22;;;;;;;;;57.00;42.00;;;;;12.33;96.94;102361.56;6269363;22;45362;-93
2022/03/21 04:30:48;;;;;;;;;59.25;43.00;;;;;12.35;97.28;102360.84;6269017;22;48264;-93
2022/03/21 04:33:13;;;;;;;;;51.75;43.00;;;;;12.42;97.22;102370.03;6269944;22;45231;-93
2022/03/21 04:35:40;;;;;;;;;49.75;39.25;;;;;12.39;97.86;102354.97;6272809;22;45285;-93
2022/03/21 04:38:16;;;;;;;;;54.75;43.25;;;;;12.46;97.98;102373.78;6269825;22;45440;-92
2022/03/21 04:40:47;;;;;;;;;54.75;42.50;;;;;12.46;97.66;102365.88;6269624;22;47415;-93
2022/03/21 04:43:14;;;;;;;;;55.00;44.25;;;;;12.37;97.32;102353.94;6269534;22;45770;-93
2022/03/21 04:45:46;;;;;;;;;59.50;44.50;;;;;12.46;97.72;102369.44;6268476;22;45495;-93
2022/03/21 04:48:12;;;;;;;;;61.75;43.25;;;;;12.43;97.45;102369.25;6269818;22;45556;-93
2022/03/21 04:50:38;;;;;;;;;45.50;36.00;;;;;12.45;98.09;102372.88;6270678;22;46489;-93
2022/03/21 04:53:06;;;;;;;;;52.25;43.50;;;;;12.51;98.00;102377.63;6269277;22;45292;-93
2022/03/21 04:55:32;;;;;;;;;55.00;41.25;;;;;12.51;97.93;102377.63;6269957;22;45763;-93
2022/03/21 04:57:59;;;;;;;;;56.00;44.00;;;;;12.52;98.37;102388.25;6270810;22;45457;-93
2022/03/21 05:00:25;;;;;;;;;52.50;40.00;;;;;12.48;98.12;102380.06;6269721;22;47876;-93
2022/03/21 05:02:51;;;;;;;;;53.25;40.75;;;;;12.53;97.95;102391.81;6270931;22;45313;-92
2022/03/21 05:05:16;;;;;;;;;57.00;41.75;;;;;12.48;98.45;102375.72;6270714;22;45407;-93
2022/03/21 05:07:45;;;;;;;;;56.00;44.25;;;;;12.59;98.69;102378.13;6275033;22;45394;-93
2022/03/21 05:10:11;;;;;;;;;59.50;42.25;;;;;12.55;97.89;102384.91;6299260;22;47097;-92
2022/03/21 05:12:37;;;;;;;;;53.75;41.25;;;;;12.54;98.40;102384.81;6299929;22;44874;-93
2022/03/21 05:15:04;;;;;;;;;56.75;46.00;;;;;12.50;98.41;102381.97;6299697;22;44750;-93
2022/03/21 05:17:30;;;;;;;;;56.50;40.75;;;;;12.52;98.16;102390.00;6295930;22;44836;-93
2022/03/21 05:19:56;;;;;;;;;56.50;43.50;;;;;12.46;98.51;102381.69;6273057;22;47175;-93
2022/03/21 05:22:21;;;;;;;;;54.75;42.75;;;;;12.54;99.00;102395.34;6271983;22;45329;-93
2022/03/21 05:35:55;;;;;;;;;56.75;42.50;;;;;12.49;99.47;102397.69;6272405;22;45346;-93
2022/03/21 05:38:25;;;;;;;;;52.00;42.50;;;;;12.56;99.64;102397.28;6270456;22;45472;-93
2022/03/21 05:40:52;;;;;;;;;53.00;39.00;;;;;12.57;99.83;102408.72;6270503;22;48046;-93
2022/03/21 05:43:18;;;;;;;;;57.25;45.50;;;;;12.47;99.56;102391.44;6270213;22;45436;-93
2022/03/21 05:45:43;;;;;;;;;55.50;42.75;;;;;12.52;99.49;102403.16;6270630;22;45203;-92
2022/03/21 05:50:53;;;;;;;;;57.75;45.50;;;;;12.49;99.87;102393.34;6272373;22;45337;-92
2022/03/21 05:53:18;;;;;;;;;56.25;40.25;;;;;12.55;100.00;102400.72;6270793;22;45386;-92
2022/03/21 05:55:45;;;;;;;;;50.00;39.00;;;;;12.61;100.00;102408.09;6272547;22;45343;-92
2022/03/21 05:58:11;;;;;;;;;54.25;44.25;;;;;12.51;100.00;102396.97;6270901;22;45163;-92
2022/03/21 06:00:37;;;;;;;;;63.75;47.25;;;;;12.56;100.00;102399.00;6271083;22;47767;-93
2022/03/21 06:03:03;;;;;;;;;57.00;40.75;;;;;12.63;100.00;102404.75;6270487;22;45422;-93
2022/03/21 06:05:30;;;;;;;;;53.00;40.00;;;;;12.54;100.00;102395.34;6270610;22;45447;-94
2022/03/21 06:07:55;;;;;;;;;51.75;41.50;;;;;12.56;100.00;102401.63;6270297;22;45282;-93
2022/03/21 06:10:21;;;;;;;;;53.25;41.75;;;;;12.53;100.00;102407.59;6270581;22;47005;-92
2022/03/21 06:12:46;;;;;;;;;55.50;41.25;;;;;12.50;100.00;102412.66;6270550;22;45511;-93
2022/03/21 06:15:13;;;;;;;;;52.50;42.00;;;;;12.48;100.00;102415.22;6270394;22;45537;-93
2022/03/21 06:17:43;;;;;;;;;53.50;43.00;;;;;12.56;100.00;102409.53;6273490;22;45397;-93
2022/03/21 06:20:13;;;;;;;;;56.50;42.00;;;;;12.55;100.00;102426.16;6269358;22;47211;-93
2022/03/21 06:22:39;;;;;;;;;56.50;47.00;;;;;12.55;100.00;102429.69;6270842;22;45337;-93
2022/03/21 06:25:06;;;;;;;;;56.25;41.50;;;;;12.56;100.00;102425.34;6270035;22;45243;-91
2022/03/21 06:27:37;;;;;;;;;58.50;46.00;;;;;12.57;100.00;102424.53;6271273;22;45419;-92
2022/03/21 06:30:04;;;;;;;;;56.50;44.75;;;;;12.57;100.00;102443.88;6268901;22;47975;-92
2022/03/21 06:32:30;;;;;;;;;58.25;46.50;;;;;12.54;100.00;102454.22;6268818;22;45304;-90
2022/03/21 06:34:55;;;;;;;;;61.25;46.25;;;;;12.52;100.00;102456.72;6270136;22;45982;-90
2022/03/21 06:37:20;;;;;;;;;58.25;43.75;;;;;12.53;100.00;102447.13;6271989;22;45230;-91
2022/03/21 06:39:46;;;;;;;;;60.25;43.75;;;;;12.60;100.00;102457.22;6268064;22;47074;-90
2022/03/21 06:42:13;;;;;;;;;58.75;45.00;;;;;12.71;100.00;102472.81;6271318;22;45266;-90
2022/03/21 06:44:39;;;;;;;;;63.00;45.00;;;;;12.73;100.00;102465.97;6269077;22;45209;-90
2022/03/21 06:47:04;;;;;;;;;52.25;41.75;;;;;12.80;100.00;102472.53;6267804;22;53429;-92
2022/03/21 06:49:32;;;;;;;;;57.75;43.50;;;;;12.85;100.00;102465.81;6271793;22;46428;-91
2022/03/21 06:51:58;;;;;;;;;57.00;44.00;;;;;12.95;100.00;102485.75;6271708;22;45325;-91
2022/03/21 06:54:23;;;;;;;;;57.50;44.25;;;;;12.97;100.00;102473.59;6268585;22;45297;-91
2022/03/21 06:56:48;;;;;;;;;57.25;43.75;;;;;13.03;100.00;102480.97;6271193;22;45285;-92
2022/03/21 06:59:14;;;;;;;;;58.75;43.00;;;;;13.10;100.00;102477.00;6268525;22;52911;-92
2022/03/21 07:01:39;;;;;;;;;59.50;46.50;;;;;13.19;100.00;102486.38;6270405;22;45600;-92
2022/03/21 07:04:05;;;;;;;;;59.50;45.50;;;;;13.24;100.00;102485.78;6272434;22;45281;-91
2022/03/21 07:06:30;;;;;;;;;57.50;45.50;;;;;13.32;100.00;102487.19;6270367;22;45452;-92
2022/03/21 07:08:56;;;;;;;;;57.25;43.75;;;;;13.36;100.00;102483.91;6271447;22;45317;-92
2022/03/21 07:11:22;;;;;;;;;54.25;43.00;;;;;13.47;100.00;102489.84;6271094;22;45335;-92
2022/03/21 07:13:48;;;;;;;;;55.25;44.50;;;;;13.57;100.00;102501.91;6272755;22;45308;-92
2022/03/21 07:16:16;;;;;;;;;56.25;44.00;;;;;13.63;100.00;102499.63;6273505;22;45316;-93
2022/03/21 07:18:42;;;;;;;;;61.00;48.50;;;;;13.78;100.00;102497.84;6272965;22;48036;-92
2022/03/21 07:21:08;;;;;;;;;61.00;50.50;;;;;13.82;100.00;102500.75;6270630;22;45382;-93
2022/03/21 07:23:34;;;;;;;;;57.75;46.75;;;;;13.90;100.00;102487.09;6267678;22;45566;-91
2022/03/21 07:26:00;;;;;;;;;58.25;46.25;;;;;14.03;100.00;102488.75;6294921;22;45886;-90
2022/03/21 07:28:26;;;;;;;;;61.75;48.00;;;;;14.09;100.00;102486.47;6268677;22;46477;-92
2022/03/21 07:30:52;;;;;;;;;58.75;44.75;;;;;14.24;100.00;102491.75;6271392;22;45170;-92
2022/03/21 07:33:18;;;;;;;;;62.75;46.25;;;;;14.31;100.00;102490.34;6296365;22;45299;-91
2022/03/21 07:35:44;;;;;;;;;58.25;48.00;;;;;14.44;100.00;102493.69;6269975;22;45286;-92
2022/03/21 07:38:10;;;;;;;;;58.25;45.75;;;;;14.56;100.00;102504.09;6268306;22;48022;-92
2022/03/21 07:40:36;;;;;;;;;55.00;45.75;;;;;14.61;100.00;102500.84;6270006;22;45885;-92
2022/03/21 07:43:02;;;;;;;;;56.00;44.25;;;;;14.72;100.00;102498.84;6283468;22;45425;-90
2022/03/21 07:48:11;;;;;;;;;57.25;42.25;;;;;14.93;100.00;102492.03;6288244;22;45320;-92
2022/03/21 07:50:38;;;;;;;;;58.00;48.00;;;;;15.08;100.00;102489.34;6283407;22;45279;-92
2022/03/21 07:53:04;;;;;;;;;56.75;46.25;;;;;15.24;100.00;102490.16;6279719;22;45303;-92
2022/03/21 07:55:33;;;;;;;;;56.50;45.00;;;;;15.33;100.00;102500.34;6280078;22;45425;-90
2022/03/21 07:57:59;;;;;;;;;66.25;49.75;;;;;15.48;100.00;102489.69;6285295;22;45335;-91
2022/03/21 08:00:26;;;;;;;;;57.75;44.50;;;;;15.60;100.00;102500.91;6270571;22;45437;-91
2022/03/21 08:02:52;;;;;;;;;59.75;48.75;;;;;15.78;100.00;102502.69;6270280;22;45340;-91
2022/03/21 08:05:18;;;;;;;;;58.00;47.00;;;;;15.91;100.00;102496.31;6269170;22;45417;-91
2022/03/21 08:07:43;;;;;;;;;58.50;44.50;;;;;15.96;100.00;102491.25;6268846;22;46983;-91
2022/03/21 08:10:11;;;;;;;;;59.50;45.75;;;;;16.12;100.00;102503.56;6270980;22;45396;-91
2022/03/21 08:12:42;;;;;;;;;58.25;46.25;;;;;16.14;100.00;102501.91;6274917;22;45206;-91
2022/03/21 08:15:11;;;;;;;;;65.25;51.75;;;;;16.23;100.00;102504.13;6273037;22;45379;-91
2022/03/21 08:17:51;;;;;;;;;65.00;49.50;;;;;16.44;100.00;102503.34;6267873;22;47906;-91
2022/03/21 08:20:24;;;;;;;;;62.50;48.00;;;;;16.64;100.00;102498.13;6273404;22;45387;-90
2022/03/21 08:22:52;;;;;;;;;59.75;48.50;;;;;16.82;100.00;102499.84;6273910;22;45451;-91
2022/03/21 08:25:20;;;;;;;;;64.50;50.00;;;;;17.14;100.00;102494.22;6269868;22;45455;-91
2022/03/21 08:27:47;;;;;;;;;62.50;50.25;;;;;17.41;100.00;102497.28;6268899;22;47084;-92
2022/03/21 08:30:15;;;;;;;;;63.50;51.00;;;;;17.61;100.00;102505.22;6270395;22;45400;-92
2022/03/21 08:32:42;;;;;;;;;58.75;46.25;;;;;17.69;100.00;102504.63;6273569;22;44740;-92
2022/03/21 08:35:07;;;;;;;;;62.00;48.00;;;;;17.80;100.00;102506.03;6273736;22;45373;-92
2022/03/21 08:37:33;;;;;;;;;53.25;41.75;;;;;17.85;100.00;102504.47;6270664;22;46979;-92
2022/03/21 08:39:58;;;;;;;;;59.50;48.00;;;;;17.79;100.00;102509.50;6273498;22;45372;-91
2022/03/21 08:42:23;;;;;;;;;52.00;41.25;;;;;17.77;100.00;102505.88;6273934;22;54034;-91
2022/03/21 08:44:49;;;;;;;;;53.50;41.25;;;;;17.72;100.00;102507.44;6272284;22;45238;-92
2022/03/21 08:47:14;;;;;;;;;52.25;40.00;;;;;17.77;100.00;102505.88;6270984;22;47236;-92
2022/03/21 08:49:39;;;;;;;;;46.75;38.75;;;;;17.91;100.00;102500.28;6271044;22;45342;-92
2022/03/21 08:52:08;;;;;;;;;43.50;38.75;;;;;18.23;100.00;102513.13;6273297;22;45568;-92
2022/03/21 08:54:33;;;;;;;;;47.25;37.25;;;;;18.52;100.00;102508.13;6273984;22;45225;-90
2022/03/21 08:56:59;;;;;;;;;47.75;38.50;;;;;18.80;100.00;102506.56;6276755;22;47394;-92
2022/03/21 08:59:25;;;;;;;;;51.50;40.00;;;;;18.97;100.00;102508.94;6274840;22;45667;-92
2022/03/21 09:01:51;;;;;;;;;46.75;37.75;;;;;19.05;100.00;102504.84;6275679;22;45301;-90
2022/03/21 09:04:17;;;;;;;;;44.75;37.00;;;;;19.12;100.00;102505.97;6277069;22;45383;-92
2022/03/21 09:06:42;;;;;;;;;47.75;36.00;;;;;19.28;100.00;102504.84;6270960;22;46833;-91
2022/03/21 09:09:08;;;;;;;;;50.25;40.00;;;;;19.52;99.89;102497.69;6273408;22;45357;-92
2022/03/21 09:11:34;;;;;;;;;50.50;38.50;;;;;19.83;99.27;102504.13;6272928;22;45343;-92
2022/03/21 09:13:59;;;;;;;;;47.50;39.50;;;;;20.06;99.79;102498.66;6270108;22;45246;-91
2022/03/21 09:16:24;;;;;;;;;47.75;36.75;;;;;20.28;99.01;102495.84;6270442;22;47778;-91
2022/03/21 09:18:50;;;;;;;;;44.00;37.75;;;;;20.50;98.34;102501.88;6272997;22;45177;-92
2022/03/21 09:21:15;;;;;;;;;40.25;34.75;;;;;20.69;97.53;102505.13;6270405;22;45229;-93
2022/03/21 09:23:41;;;;;;;;;44.25;36.00;;;;;20.65;97.13;102489.03;6270249;22;45685;-91
2022/03/21 09:26:10;;;;;;;;;41.00;35.00;;;;;20.57;97.08;102494.97;6270472;22;48277;-93
2022/03/21 09:28:36;;;;;;;;;37.75;34.50;;;;;20.41;95.93;102494.50;6273510;22;45303;-91
2022/03/21 09:31:02;;;;;;;;;42.25;35.25;;;;;20.28;96.02;102495.84;6272628;22;45384;-92
2022/03/21 09:33:28;;;;;;;;;42.75;35.50;;;;;20.15;96.17;102507.88;6269927;22;45330;-92
2022/03/21 09:35:53;;;;;;;;;41.00;35.00;;;;;20.01;95.52;102500.28;6270586;22;48110;-92
2022/03/21 09:38:18;;;;;;;;;34.75;29.00;;;;;19.94;95.88;102507.16;6270209;22;50506;-91
2022/03/21 09:40:45;;;;;;;;;37.75;31.50;;;;;19.88;95.64;102502.50;6270814;22;45515;-92
2022/03/21 09:43:11;;;;;;;;;35.25;32.00;;;;;19.84;95.57;102508.56;6273727;22;45246;-92
2022/03/21 09:45:38;;;;;;;;;37.75;32.00;;;;;19.83;95.57;102504.13;6278569;22;45257;-92
2022/03/21 09:48:12;;;;;;;;;35.25;30.50;;;;;19.85;95.88;102496.16;6272514;22;45186;-92
2022/03/21 09:50:42;;;;;;;;;37.50;32.75;;;;;19.80;95.62;102496.00;6270531;22;45326;-92
2022/03/21 09:53:09;;;;;;;;;35.50;32.75;;;;;19.75;95.54;102489.63;6270233;22;45571;-93
2022/03/21 09:55:35;;;;;;;;;35.75;33.50;;;;;19.80;95.82;102493.34;6273998;22;48129;-91
2022/03/21 09:58:02;;;;;;;;;35.25;28.25;;;;;19.76;96.00;102484.34;6278003;22;45238;-92
2022/03/21 10:00:27;;;;;;;;;31.75;28.75;;;;;19.84;95.23;102481.03;6276950;22;45351;-93
2022/03/21 10:02:53;;;;;;;;;30.00;28.00;;;;;19.93;95.60;102494.69;6297450;22;45412;-93
2022/03/21 10:05:34;;;;;;;;;28.25;25.00;;;;;19.96;94.76;102477.88;6276575;22;48139;-92
2022/03/21 10:08:19;;;;;;;;;27.50;25.00;;;;;20.09;95.12;102485.44;6277041;22;45258;-91
2022/03/21 10:11:01;;;;;;;;;31.50;29.00;;;;;20.03;94.99;102482.56;6273028;22;45291;-92
2022/03/21 10:13:36;;;;;;;;;24.33;22.67;;;;;20.11;95.30;102490.81;6274949;22;45356;-95
2022/03/21 10:16:13;;;;;;;;;28.00;26.00;;;;;20.19;95.08;102493.78;6277458;22;45415;-91
2022/03/21 10:18:54;;;;;;;;;27.00;24.00;;;;;20.24;94.95;102486.84;6270718;22;45393;-91
2022/03/21 10:21:23;;;;;;;;;27.00;22.00;;;;;20.25;94.89;102482.41;6296135;22;45345;-91
2022/03/21 10:24:06;;;;;;;;;22.50;21.00;;;;;20.29;94.09;102482.56;6271799;22;45272;-91
2022/03/21 10:26:33;;;;;;;;;22.00;19.00;;;;;20.30;94.16;102497.72;6273214;22;47523;-91
2022/03/21 10:29:00;;;;;;;;;20.33;17.67;;;;;20.28;93.73;102477.19;6298679;22;45259;-91
2022/03/21 10:31:36;;;;;;;;;22.67;19.00;;;;;20.45;94.27;102482.16;6275199;22;45249;-92
2022/03/21 10:34:05;;;;;;;;;22.67;20.00;;;;;20.43;94.82;102474.09;6215118;22;45492;-93
2022/03/21 10:36:30;;;;;;;;;22.33;19.67;;;;;20.46;93.84;102474.19;6241111;22;45409;-93
2022/03/21 10:39:12;;;;;;;;;22.33;17.33;;;;;20.64;93.64;102471.19;6213474;22;45587;-93
2022/03/21 10:41:39;;;;;;;;;24.67;22.00;;;;;20.63;93.51;102468.50;6241938;22;45306;-93
2022/03/21 10:44:06;;;;;;;;;17.00;15.00;;;;;20.67;92.68;102465.03;6213507;22;45521;-93
2022/03/21 10:46:32;;;;;;;;;21.33;16.33;;;;;20.68;92.86;102468.63;6213798;22;47191;-92
2022/03/21 10:49:03;;;;;;;;;17.33;16.00;;;;;20.86;93.68;102469.19;6242525;22;45379;-93
2022/03/21 10:51:46;;;;;;;;;15.00;13.33;;;;;20.95;93.09;102476.56;6213954;22;45612;-93
2022/03/21 10:54:34;;;;;;;;;23.00;20.67;;;;;21.09;92.61;102473.41;6213978;22;45418;-92
2022/03/21 10:57:00;;;;;;;;;23.50;22.25;;;;;21.03;92.45;102467.91;6213263;22;47922;-92
2022/03/21 10:59:25;;;;;;;;;21.75;19.50;;;;;21.13;92.72;102461.09;6214156;22;45586;-93
2022/03/21 11:02:17;;;;;;;;;30.00;26.75;;;;;21.32;92.51;102457.16;6213806;22;45499;-90
2022/03/21 11:04:44;;;;;;;;;18.00;18.00;;;;;21.34;92.21;102455.41;6215394;22;45191;-91
2022/03/21 11:07:13;;;;;;;;;25.33;21.67;;;;;21.48;92.20;102439.78;6241786;22;45617;-90
2022/03/21 11:09:40;;;;;;;;;23.67;17.00;;;;;21.54;92.06;102447.06;6241855;22;45282;-91
2022/03/21 11:12:07;;;;;;;;;16.00;13.33;;;;;21.57;91.68;102446.25;6242052;22;45220;-91
2022/03/21 11:14:36;;;;;;;;;25.33;21.33;;;;;21.69;91.57;102448.31;6212708;22;45576;-91
2022/03/21 11:17:03;;;;;;;;;18.67;16.33;;;;;21.74;91.48;102444.00;6240460;22;45267;-91
2022/03/21 11:19:49;;;;;;;;;16.00;12.33;;;;;21.84;92.01;102448.72;6225612;22;45937;-92
2022/03/21 11:22:16;;;;;;;;;13.67;13.33;;;;;21.99;91.47;102432.19;6204237;22;45418;-91
2022/03/21 11:24:42;;;;;;;;;20.67;17.00;;;;;22.10;91.55;102437.81;6221368;22;45313;-90
2022/03/21 11:27:44;;;;;;;;;17.67;13.00;;;;;22.29;89.72;102446.25;6188588;22;46713;-91